Hartsel, CO (80449)

11:40 AM MDT on September 04, 2015 (GMT -0600)
Antero Junction | | Change Station
CLOSE
Current Station
Personal Weather Station
Location: Hartsel, CO
Elevation: 9420 ft
Nearby Weather Stations

Elev 9420 ft 38.89 °N, 105.90 °W | Updated 9 minutes ago

Clear
Clear
62.3 °F
Feels Like 62.3 °F
N
0.0
Wind Variable Wind from East
Gusts 7.0 mph

Today
High -- | Low -- °F
--% Chance of Precip.
Yesterday
High -- | Low -- °F
Precip. -- in
6:34 AM 7:29 PM
Waning Gibbous, 57% visible
Pressure 30.25 in
Visibility 10.0 miles
Clouds Mostly Cloudy 10000 ft
Dew Point 44 °F
Humidity 51%
Rainfall 0.00 in
Snow Depth Not available.
UV 5 out of 12
Pollen 9.90 out of 12
Air Quality Not available.
Flu Activity Not available.
METAR KAEJ 041735Z AUTO 00000KT 10SM BKN100 17/07 A3025 RMK AO2 T01690068
Pressure 30.25 in
Visibility 10.0 miles
Clouds Mostly Cloudy 10000 ft
Dew Point 44 °F
Humidity 51%
Rainfall 0.00 in
Snow Depth Not available.
UV 5 out of 12
Pollen 9.90 out of 12
Air Quality Not available.
Flu Activity Not available.
METAR KAEJ 041735Z AUTO 00000KT 10SM BKN100 17/07 A3025 RMK AO2 T01690068

10-Day Weather Forecast

×

Almanac

Astronomy

Sep. 04, 2015 Rise Set
Actual Time
Civil Twilight
Nautical Twilight
Astronomical Twilight
Moon
Length of Visible Light
Length of Day
Tomorrow will be .
, % of the Moon is Illuminated

Today's Extremes

State Highs State Lows

Community

WunderPhotos

Upload Photos

1,852,250 photos uploaded!

WunderBlogs® & News

Nearby

Air Quality

  Air Quality AQ Index Pollutant
Not available.

Snow Depth

Station Depth Elevation

Earthquake Activity

City Distance Mag. Time & Date
Minimum magnitude displayed is 2.5.

Coastal Water Temperatures

Place Temperature

Stations

Nearby Weather Stations

Station Location Temp. Windchill Dew Point Humidity Wind Precip. Elev Updated Type